sim
Sign-in with your pilot id or email,
or register
Callsign
Passwort

Schedule Details

Flight Number: OEO1800
Departure: Bremen Airport (EDDW) at 11:20
Arrival: Thessaloniki International Airport (LGTS) at 14:05

Weather Information
Getting current METAR information for EDDW 252120Z 08006KT CAVOK 17/08 Q1006
Getting current METAR information for LGTS 252120Z 00000KT CAVOK 15/12 Q1020 NOSIG

Schedule Frequency

Route Map